sensor_id;sensor_type;location;lat;lon;timestamp;P1;durP1;ratioP1;P2;durP2;ratioP2
44730;SDS011;30458;47.448;19.032;2022-08-21T00:08:07;2.65;;;2.38;;
44730;SDS011;30458;47.448;19.032;2022-08-21T00:18:08;2.88;;;2.28;;
44730;SDS011;30458;47.448;19.032;2022-08-21T00:28:13;2.90;;;2.28;;
44730;SDS011;30458;47.448;19.032;2022-08-21T00:38:17;2.97;;;2.78;;
44730;SDS011;30458;47.448;19.032;2022-08-21T00:48:24;3.95;;;2.63;;
44730;SDS011;30458;47.448;19.032;2022-08-21T00:58:26;3.40;;;3.10;;
44730;SDS011;30458;47.448;19.032;2022-08-21T01:08:31;4.95;;;3.55;;
44730;SDS011;30458;47.448;19.032;2022-08-21T01:18:33;4.38;;;3.60;;
44730;SDS011;30458;47.448;19.032;2022-08-21T01:28:38;5.57;;;4.47;;
44730;SDS011;30458;47.448;19.032;2022-08-21T01:38:44;4.23;;;3.83;;
44730;SDS011;30458;47.448;19.032;2022-08-21T01:48:47;4.15;;;3.10;;
44730;SDS011;30458;47.448;19.032;2022-08-21T01:58:50;3.55;;;3.25;;
44730;SDS011;30458;47.448;19.032;2022-08-21T02:08:51;3.88;;;3.47;;
44730;SDS011;30458;47.448;19.032;2022-08-21T02:18:55;6.57;;;5.00;;
44730;SDS011;30458;47.448;19.032;2022-08-21T02:28:58;5.82;;;5.00;;
44730;SDS011;30458;47.448;19.032;2022-08-21T02:39:02;6.97;;;5.32;;
44730;SDS011;30458;47.448;19.032;2022-08-21T02:49:03;6.55;;;5.32;;
44730;SDS011;30458;47.448;19.032;2022-08-21T02:59:04;6.35;;;4.40;;
44730;SDS011;30458;47.448;19.032;2022-08-21T03:09:07;5.38;;;4.35;;
44730;SDS011;30458;47.448;19.032;2022-08-21T03:19:10;4.85;;;4.28;;
44730;SDS011;30458;47.448;19.032;2022-08-21T03:29:14;6.13;;;5.53;;
44730;SDS011;30458;47.448;19.032;2022-08-21T03:39:15;4.50;;;4.10;;
44730;SDS011;30458;47.448;19.032;2022-08-21T03:49:18;5.72;;;4.68;;
44730;SDS011;30458;47.448;19.032;2022-08-21T03:59:22;8.98;;;6.70;;
44730;SDS011;30458;47.448;19.032;2022-08-21T04:09:25;6.97;;;5.10;;
44730;SDS011;30458;47.448;19.032;2022-08-21T04:19:34;6.50;;;5.20;;
44730;SDS011;30458;47.448;19.032;2022-08-21T04:29:37;6.90;;;5.13;;
44730;SDS011;30458;47.448;19.032;2022-08-21T04:39:38;7.03;;;6.20;;
44730;SDS011;30458;47.448;19.032;2022-08-21T04:49:43;5.65;;;4.95;;
44730;SDS011;30458;47.448;19.032;2022-08-21T04:59:48;5.63;;;5.05;;
44730;SDS011;30458;47.448;19.032;2022-08-21T05:09:51;5.95;;;4.68;;
44730;SDS011;30458;47.448;19.032;2022-08-21T05:19:53;6.15;;;5.45;;
44730;SDS011;30458;47.448;19.032;2022-08-21T05:29:55;6.55;;;5.32;;
44730;SDS011;30458;47.448;19.032;2022-08-21T05:39:59;5.43;;;4.93;;
44730;SDS011;30458;47.448;19.032;2022-08-21T05:50:03;5.85;;;4.70;;
44730;SDS011;30458;47.448;19.032;2022-08-21T06:00:08;5.07;;;4.57;;
44730;SDS011;30458;47.448;19.032;2022-08-21T06:10:13;3.88;;;3.53;;
44730;SDS011;30458;47.448;19.032;2022-08-21T06:20:13;3.85;;;3.53;;
44730;SDS011;30458;47.448;19.032;2022-08-21T06:30:19;3.72;;;3.40;;
44730;SDS011;30458;47.448;19.032;2022-08-21T06:40:25;3.85;;;3.45;;
44730;SDS011;30458;47.448;19.032;2022-08-21T06:50:28;4.88;;;3.45;;
44730;SDS011;30458;47.448;19.032;2022-08-21T07:00:34;4.97;;;3.78;;
44730;SDS011;30458;47.448;19.032;2022-08-21T07:10:35;4.80;;;4.25;;
44730;SDS011;30458;47.448;19.032;2022-08-21T07:20:39;4.47;;;3.10;;
44730;SDS011;30458;47.448;19.032;2022-08-21T07:30:43;3.72;;;3.38;;
44730;SDS011;30458;47.448;19.032;2022-08-21T07:40:45;4.00;;;3.65;;
44730;SDS011;30458;47.448;19.032;2022-08-21T07:50:50;4.40;;;4.00;;
44730;SDS011;30458;47.448;19.032;2022-08-21T08:00:55;5.00;;;4.50;;
44730;SDS011;30458;47.448;19.032;2022-08-21T08:10:58;5.28;;;4.35;;
44730;SDS011;30458;47.448;19.032;2022-08-21T08:21:00;5.43;;;4.80;;
44730;SDS011;30458;47.448;19.032;2022-08-21T08:31:03;4.45;;;3.85;;
44730;SDS011;30458;47.448;19.032;2022-08-21T08:41:15;5.30;;;4.80;;
44730;SDS011;30458;47.448;19.032;2022-08-21T08:51:25;4.70;;;3.92;;
44730;SDS011;30458;47.448;19.032;2022-08-21T09:01:33;6.03;;;4.55;;
44730;SDS011;30458;47.448;19.032;2022-08-21T09:11:57;5.53;;;4.50;;
44730;SDS011;30458;47.448;19.032;2022-08-21T09:32:37;5.80;;;5.00;;
44730;SDS011;30458;47.448;19.032;2022-08-21T09:42:39;6.63;;;5.55;;
44730;SDS011;30458;47.448;19.032;2022-08-21T09:52:47;5.90;;;5.20;;
44730;SDS011;30458;47.448;19.032;2022-08-21T10:02:50;6.80;;;5.03;;
44730;SDS011;30458;47.448;19.032;2022-08-21T10:33:30;7.35;;;5.78;;
44730;SDS011;30458;47.448;19.032;2022-08-21T10:54:30;8.20;;;6.10;;
44730;SDS011;30458;47.448;19.032;2022-08-21T11:04:56;5.68;;;5.07;;
44730;SDS011;30458;47.448;19.032;2022-08-21T11:15:07;6.70;;;5.72;;
44730;SDS011;30458;47.448;19.032;2022-08-21T11:25:27;5.65;;;5.00;;
44730;SDS011;30458;47.448;19.032;2022-08-21T12:06:14;6.82;;;5.53;;
44730;SDS011;30458;47.448;19.032;2022-08-21T12:16:15;5.20;;;4.32;;
44730;SDS011;30458;47.448;19.032;2022-08-21T12:26:51;5.57;;;5.07;;
44730;SDS011;30458;47.448;19.032;2022-08-21T12:36:58;4.60;;;4.20;;
44730;SDS011;30458;47.448;19.032;2022-08-21T12:47:04;5.32;;;4.50;;
44730;SDS011;30458;47.448;19.032;2022-08-21T12:57:23;4.80;;;4.40;;
44730;SDS011;30458;47.448;19.032;2022-08-21T13:07:29;5.25;;;4.78;;
44730;SDS011;30458;47.448;19.032;2022-08-21T13:17:35;4.95;;;4.15;;
44730;SDS011;30458;47.448;19.032;2022-08-21T13:27:39;5.90;;;5.30;;
44730;SDS011;30458;47.448;19.032;2022-08-21T13:37:43;8.02;;;7.13;;
44730;SDS011;30458;47.448;19.032;2022-08-21T13:47:46;7.85;;;6.15;;
44730;SDS011;30458;47.448;19.032;2022-08-21T13:57:48;5.75;;;4.82;;
44730;SDS011;30458;47.448;19.032;2022-08-21T14:08:08;4.35;;;3.30;;
44730;SDS011;30458;47.448;19.032;2022-08-21T14:18:17;3.88;;;3.47;;
44730;SDS011;30458;47.448;19.032;2022-08-21T14:28:24;3.58;;;3.28;;
44730;SDS011;30458;47.448;19.032;2022-08-21T14:38:35;4.65;;;2.63;;
44730;SDS011;30458;47.448;19.032;2022-08-21T14:48:39;3.65;;;2.75;;
44730;SDS011;30458;47.448;19.032;2022-08-21T14:58:45;3.80;;;2.05;;
44730;SDS011;30458;47.448;19.032;2022-08-21T15:08:49;2.70;;;2.50;;
44730;SDS011;30458;47.448;19.032;2022-08-21T15:18:50;3.25;;;2.67;;
44730;SDS011;30458;47.448;19.032;2022-08-21T15:28:56;2.20;;;2.00;;
44730;SDS011;30458;47.448;19.032;2022-08-21T15:38:59;2.53;;;2.33;;
44730;SDS011;30458;47.448;19.032;2022-08-21T15:49:03;2.15;;;1.63;;
44730;SDS011;30458;47.448;19.032;2022-08-21T15:59:14;2.80;;;2.10;;
44730;SDS011;30458;47.448;19.032;2022-08-21T16:09:20;2.10;;;1.90;;
44730;SDS011;30458;47.448;19.032;2022-08-21T16:19:21;2.38;;;2.17;;
44730;SDS011;30458;47.448;19.032;2022-08-21T16:29:22;2.08;;;1.80;;
44730;SDS011;30458;47.448;19.032;2022-08-21T16:39:23;3.00;;;2.10;;
44730;SDS011;30458;47.448;19.032;2022-08-21T16:49:24;2.37;;;1.80;;
44730;SDS011;30458;47.448;19.032;2022-08-21T16:59:25;2.70;;;1.95;;
44730;SDS011;30458;47.448;19.032;2022-08-21T17:09:31;2.10;;;1.90;;
44730;SDS011;30458;47.448;19.032;2022-08-21T17:19:34;2.55;;;1.60;;
44730;SDS011;30458;47.448;19.032;2022-08-21T17:29:37;3.80;;;1.80;;
44730;SDS011;30458;47.448;19.032;2022-08-21T17:39:42;1.88;;;1.63;;
44730;SDS011;30458;47.448;19.032;2022-08-21T17:49:45;2.08;;;1.60;;
44730;SDS011;30458;47.448;19.032;2022-08-21T17:59:49;1.88;;;1.70;;
44730;SDS011;30458;47.448;19.032;2022-08-21T18:09:50;1.40;;;1.30;;
44730;SDS011;30458;47.448;19.032;2022-08-21T18:19:50;2.70;;;1.50;;
44730;SDS011;30458;47.448;19.032;2022-08-21T18:29:54;1.70;;;1.60;;
44730;SDS011;30458;47.448;19.032;2022-08-21T18:39:57;1.50;;;1.40;;
44730;SDS011;30458;47.448;19.032;2022-08-21T18:49:58;1.92;;;1.45;;
44730;SDS011;30458;47.448;19.032;2022-08-21T18:59:59;2.75;;;1.70;;
44730;SDS011;30458;47.448;19.032;2022-08-21T19:10:06;1.50;;;1.40;;
44730;SDS011;30458;47.448;19.032;2022-08-21T19:20:12;1.50;;;1.40;;
44730;SDS011;30458;47.448;19.032;2022-08-21T19:40:22;2.27;;;1.20;;
44730;SDS011;30458;47.448;19.032;2022-08-21T19:50:23;3.03;;;1.67;;
44730;SDS011;30458;47.448;19.032;2022-08-21T20:00:24;1.48;;;1.20;;
44730;SDS011;30458;47.448;19.032;2022-08-21T20:10:25;1.38;;;1.00;;
44730;SDS011;30458;47.448;19.032;2022-08-21T20:20:29;1.63;;;1.00;;
44730;SDS011;30458;47.448;19.032;2022-08-21T20:30:32;1.83;;;1.07;;
44730;SDS011;30458;47.448;19.032;2022-08-21T20:40:35;1.30;;;1.20;;
44730;SDS011;30458;47.448;19.032;2022-08-21T20:50:38;1.52;;;0.93;;
44730;SDS011;30458;47.448;19.032;2022-08-21T21:00:44;1.85;;;1.00;;
44730;SDS011;30458;47.448;19.032;2022-08-21T21:30:58;1.02;;;1.00;;
44730;SDS011;30458;47.448;19.032;2022-08-21T21:51:20;2.15;;;1.85;;
44730;SDS011;30458;47.448;19.032;2022-08-21T22:11:53;2.80;;;2.40;;
44730;SDS011;30458;47.448;19.032;2022-08-21T22:22:14;2.33;;;1.90;;
44730;SDS011;30458;47.448;19.032;2022-08-21T22:32:25;2.38;;;2.17;;
44730;SDS011;30458;47.448;19.032;2022-08-21T22:42:36;2.65;;;2.30;;
44730;SDS011;30458;47.448;19.032;2022-08-21T22:52:44;2.80;;;2.60;;
44730;SDS011;30458;47.448;19.032;2022-08-21T23:12:54;2.50;;;2.30;;
44730;SDS011;30458;47.448;19.032;2022-08-21T23:23:13;2.40;;;2.20;;
44730;SDS011;30458;47.448;19.032;2022-08-21T23:44:14;2.50;;;2.30;;
44730;SDS011;30458;47.448;19.032;2022-08-21T23:54:48;3.28;;;2.22;;
